Flight Track Log - Related Links

Times and Time Zones

All times are in EDT time to prevent confusion due to time zone crossing. See the UAL4625 flight status page for this flight to view local times or setup timezone preferences in your user account.

Time Position Orientation Groundspeed Altitude Reporting Facility
EDT Latitude Longitude Course Direction KTS MPH feet Rate Location/Type
Tue 01:38:45 PM 33.0558 -79.9903 13° North 259 298 6,000  Level Jacksonville Center
Tue 01:39:00 PM 33.1431 -79.9500 North  Level FlightAware Approximate
Tue 01:39:44 PM 33.1264 -79.9708 13° North 268 308 9,300  Level Jacksonville Center
Tue 01:40:00 PM 33.2311 -79.9305 North  Level FlightAware Approximate
Tue 01:40:44 PM 33.2011 -79.9483 14° North 273 314 10,900  Level Jacksonville Center
Tue 01:41:00 PM 33.3187 -79.9073 23° Northeast  Level FlightAware Approximate
Tue 01:41:45 PM 33.2944 -79.9231 13° North 300 345 11,900  Level Jacksonville Center
Tue 01:42:00 PM 33.4043 -79.8758 North  Level FlightAware Approximate
Tue 01:42:44 PM 33.3897 -79.8950 14° North 327 376 13,600  Level Jacksonville Center
Tue 01:43:00 PM 33.4926 -79.8545 13° North  Level FlightAware Approximate
Tue 01:43:44 PM 33.4892 -79.8667 13° North 350 403 15,100  Level Jacksonville Center
Tue 01:44:00 PM 33.5803 -79.8295 13° North  Level FlightAware Approximate
Tue 01:44:44 PM 33.5889 -79.8408 12° North 356 410 16,600  Level Jacksonville Center
Tue 01:45:44 PM 33.6925 -79.8122 13° North 366 421 17,900 1,450 Climbing Jacksonville Center
Tue 01:46:44 PM 33.7961 -79.7836 13° North 372 428 19,500 1,636 Climbing Jacksonville Center
Tue 01:47:45 PM 33.8956 -79.7550 13° North 372 428 21,200 1,934 Climbing Jacksonville Center
Tue 01:48:45 PM 33.9908 -79.7292 13° North 366 421 23,400 1,815 Climbing Jacksonville Center
Tue 01:49:44 PM 34.0756 -79.6986 17° North 341 392 24,800 756 Climbing Jacksonville Center
Tue 01:50:44 PM 34.1231 -79.6014 59° Northeast 302 348 24,900 100 Climbing Jacksonville Center
Tue 01:51:44 PM 34.0478 -79.5117 135° Southeast 243 280 25,000 50 Climbing Jacksonville Center
Tue 01:52:44 PM 33.9639 -79.5775 213° Southwest 195 224 25,000 50 Level Jacksonville Center
Tue 01:53:45 PM 34.0136 -79.6456 311° West 127 146 25,100 645 Climbing Jacksonville Center
Tue 01:54:45 PM 34.1036 -79.6522 356° North 203 234 26,300 1,261 Climbing Jacksonville Center
Tue 01:55:44 PM 34.1933 -79.6542 359° North 272 313 27,600 1,100 Climbing Jacksonville Center
Tue 01:56:45 PM 34.2728 -79.6561 359° North 288 331 28,500 464 Climbing Jacksonville Center
Tue 01:58:45 PM 34.4661 -79.6475 North 345 397 29,000 167 Climbing Washington Center
Tue 01:59:45 PM 34.5667 -79.6372 North 359 413 29,000  Level Washington Center
Tue 02:00:45 PM 34.6753 -79.6300 North 371 427 29,000  Level Washington Center
Tue 02:01:45 PM 34.7842 -79.6228 North 382 440 29,000  Level Washington Center
Tue 02:02:45 PM 34.8906 -79.6181 North 387 445 29,000  Level Washington Center
Tue 02:03:45 PM 34.9953 -79.6106 North 387 445 29,000 650 Level Washington Center
Tue 02:04:45 PM 35.1019 -79.6031 North 382 440 30,300 1,200 Climbing Washington Center
Tue 02:05:45 PM 35.1967 -79.5775 12° North 367 422 31,400 1,450 Climbing Washington Center
Tue 02:06:45 PM 35.2844 -79.5131 31° Northeast 357 411 33,200 1,600 Climbing Washington Center
Tue 02:07:45 PM 35.3697 -79.4561 29° Northeast 351 404 34,600 900 Climbing Washington Center
Tue 02:08:45 PM 35.4572 -79.3914 31° Northeast 351 404 35,000 200 Climbing Washington Center
Tue 02:09:45 PM 35.5556 -79.3194 31° Northeast 366 421 35,000  Level Washington Center
Tue 02:10:45 PM 35.6347 -79.2569 33° Northeast 371 427 35,000  Level Washington Center
Tue 02:11:45 PM 35.7328 -79.1897 29° Northeast 381 438 35,000  Level Washington Center
Tue 02:12:45 PM 35.8267 -79.1197 31° Northeast 387 445 35,000  Level Washington Center
Tue 02:13:45 PM 35.9206 -79.0494 31° Northeast 392 451 35,000  Level Washington Center
Tue 02:14:45 PM 36.0164 -78.9792 31° Northeast 392 451 35,000  Level Washington Center
Tue 02:15:45 PM 36.1100 -78.9086 31° Northeast 392 451 35,000  Level Washington Center
Tue 02:16:45 PM 36.2144 -78.8333 30° Northeast 397 457 35,000  Level Washington Center
Tue 02:17:45 PM 36.3125 -78.7600 31° Northeast 397 457 35,000  Level Washington Center
Tue 02:18:45 PM 36.4061 -78.6889 31° Northeast 397 457 35,000  Level Washington Center
Tue 02:19:45 PM 36.5039 -78.6153 31° Northeast 397 457 35,000  Level Washington Center
Tue 02:20:45 PM 36.5975 -78.5464 31° Northeast 392 451 35,000  Level Washington Center
Tue 02:21:45 PM 36.6783 -78.4797 33° Northeast 392 451 35,000  Level Washington Center
Tue 02:22:45 PM 36.7803 -78.4031 31° Northeast 387 445 35,000  Level Washington Center
Tue 02:23:45 PM 36.8736 -78.3336 31° Northeast 387 445 35,000  Level Washington Center
Tue 02:24:45 PM 36.9672 -78.2617 32° Northeast 397 457 35,000 -400 Level Washington Center
Tue 02:25:45 PM 37.0606 -78.1919 31° Northeast 392 451 34,200 -900 Descending Washington Center
Tue 02:26:45 PM 37.1475 -78.1219 33° Northeast 387 445 33,200 -1,000 Descending Washington Center
Tue 02:27:45 PM 37.2386 -78.0544 31° Northeast 382 440 32,200 -1,000 Descending Washington Center
Tue 02:28:45 PM 37.3297 -77.9844 31° Northeast 382 440 31,200 -600 Descending Washington Center
Tue 02:29:45 PM 37.4250 -77.9089 32° Northeast 389 448 31,000 -67 Descending Washington Center
Tue 02:31:45 PM 37.6031 -77.7622 33° Northeast 389 448 31,000  Level Washington Center
Tue 02:32:45 PM 37.6922 -77.6781 37° Northeast 389 448 31,000  Level Washington Center
Tue 02:33:45 PM 37.7811 -77.5992 35° Northeast 389 448 31,000  Level Washington Center
Tue 02:34:45 PM 37.8700 -77.5172 36° Northeast 389 448 31,000  Level Washington Center
Tue 02:35:45 PM 37.9589 -77.4353 36° Northeast 389 448 31,000 -350 Level Washington Center
Tue 02:36:45 PM 38.0286 -77.3711 36° Northeast 389 448 30,300 -900 Descending Washington Center
Tue 02:37:45 PM 38.1428 -77.2708 35° Northeast 402 463 29,200 -650 Descending Washington Center
Tue 02:38:45 PM 38.2356 -77.1831 37° Northeast 416 479 29,000 -100 Descending Washington Center
Tue 02:39:45 PM 38.3242 -77.1056 34° Northeast 408 470 29,000  Level Washington Center
Tue 02:40:45 PM 38.4278 -77.0044 37° Northeast 414 476 29,000  Level Washington Center
Tue 02:41:45 PM 38.5267 -76.9158 35° Northeast 428 493 29,000  Level Washington Center
Tue 02:42:45 PM 38.6256 -76.8194 37° Northeast 433 498 29,000  Level Washington Center
Tue 02:43:45 PM 38.7225 -76.7253 37° Northeast 433 498 29,000  Level Washington Center
Tue 02:44:45 PM 38.8153 -76.6200 41° Northeast 438 504 29,000 -300 Level Washington Center
Tue 02:45:45 PM 38.9056 -76.5144 42° Northeast 438 504 28,400 -550 Descending Washington Center
Tue 02:46:45 PM 38.9981 -76.4064 42° Northeast 438 504 27,900 -650 Descending Washington Center
Tue 02:47:45 PM 39.0883 -76.3003 42° Northeast 438 504 27,100 -450 Descending Washington Center
Tue 02:48:45 PM 39.1808 -76.1914 42° Northeast 444 511 27,000 -50 Descending Washington Center
Tue 02:49:45 PM 39.2686 -76.0928 41° Northeast 449 517 27,000 -450 Level Washington Center
Tue 02:50:45 PM 39.3608 -75.9861 42° Northeast 449 517 26,100 -900 Descending Washington Center
Tue 02:51:45 PM 39.4528 -75.8764 43° Northeast 443 510 25,200 -600 Descending Washington Center
Tue 02:52:45 PM 39.5447 -75.7664 43° Northeast 443 510 24,900 -600 Descending Washington Center
Tue 02:53:45 PM 39.6364 -75.6617 41° Northeast 443 510 24,000 -950 Descending Washington Center
Tue 02:54:45 PM 39.7239 -75.5564 43° Northeast 433 498 23,000 -1,250 Descending Washington Center
Tue 02:55:45 PM 39.8072 -75.4564 43° Northeast 420 483 21,500 -2,450 Descending Washington Center
Tue 02:56:45 PM 39.8864 -75.3589 43° Northeast 401 461 18,100 -3,200 Descending Washington Center
Tue 02:57:45 PM 39.9653 -75.2639 43° Northeast 390 449 15,100 -2,350 Descending Washington Center
Tue 02:58:45 PM 40.0358 -75.1769 43° Northeast 369 425 13,400 -1,700 Descending Washington Center
Tue 02:59:45 PM 40.1000 -75.0978 43° Northeast 339 390 11,700 -1,250 Descending Washington Center
Tue 03:00:45 PM 40.1642 -75.0186 43° Northeast 304 350 10,900 -350 Descending Washington Center
Tue 03:01:45 PM 40.2139 -74.9558 44° Northeast 266 306 11,000 50 Climbing Washington Center
Tue 03:02:45 PM 40.2636 -74.8956 43° Northeast 248 285 11,000  Level Washington Center
Tue 03:03:45 PM 40.2506 -74.8278 104° East 173 199 11,000 -50 Level Washington Center
Tue 03:04:45 PM 40.1906 -74.8719 209° Southwest 113 130 10,900  Descending Washington Center
Tue 03:05:45 PM 40.1533 -74.9400 234° Southwest 166 191 11,000 50 Climbing Washington Center
Tue 03:06:45 PM 40.2014 -74.9750 331° Northwest 112 129 11,000  Level Washington Center
Tue 03:07:45 PM 40.2533 -74.9119 43° Northeast 124 143 11,000  Level Washington Center
Tue 03:08:45 PM 40.2589 -74.8358 85° East 166 191 11,000  Level Washington Center
Tue 03:09:45 PM 40.2092 -74.8744 211° Southwest 89 102 11,000 -67 Level Washington Center
Tue 03:10:15 PM 40.2333 -74.9167 307° West 270 311 10,900 -813 Descending New York TRACON
Tue 03:11:21 PM 40.3000 -74.8500 37° Northeast 283 326 9,700 -1,238 Descending New York TRACON
Tue 03:12:21 PM 40.3333 -74.7667 62° Northeast 279 321 8,300 -1,350 Descending New York TRACON
Tue 03:13:21 PM 40.3500 -74.6667 78° East 259 298 7,000 -1,300 Descending New York TRACON
Tue 03:14:21 PM 40.3667 -74.5833 75° East 258 297 5,700 -1,300 Descending New York TRACON
Tue 03:15:21 PM 40.4000 -74.5000 62° Northeast 242 278 4,400 -850 Descending New York TRACON
Tue 03:16:21 PM 40.4167 -74.4167 75° East 236 272 4,000 -350 Descending New York TRACON
Tue 03:17:21 PM 40.4500 -74.3500 57° Northeast 178 205 3,700 -450 Descending New York TRACON
Tue 03:18:21 PM 40.4667 -74.3000 66° East 171 197 3,100 -347 Descending New York TRACON
Tue 03:19:22 PM 40.5167 -74.2833 14° North 177 204 3,000 -149 Descending New York TRACON
Tue 03:20:22 PM 40.5667 -74.2500 27° Northeast 177 204 2,800 -200 Descending New York TRACON

Login

Don't have an account? Register now (free) for customized features, flight alerts, and more!